Time;durP1;ratioP1;P1;durP2;ratioP2;P2;SDS_P1;SDS_P2;PMS_P1;PMS_P2;Temp;Humidity;BMP_temperature;BMP_pressure;BME280_temperature;BME280_humidity;BME280_pressure;Samples;Min_cycle;Max_cycle;Signal;HPM_P1;HPM_P2
2023/06/24 00:01:51;;;;;;;0.20;0.20;;;16.20;99.90;;;;;;5031141;28;20292;-67
2023/06/24 00:04:18;;;;;;;0.30;0.30;;;16.20;99.90;;;;;;5030694;28;20253;-68
2023/06/24 00:06:44;;;;;;;0.30;0.30;;;16.10;99.90;;;;;;5031140;28;20187;-68
2023/06/24 00:09:10;;;;;;;0.43;0.43;;;16.10;99.90;;;;;;5030956;28;20209;-67
2023/06/24 00:11:36;;;;;;;0.30;0.30;;;16.10;99.90;;;;;;5030759;28;20529;-67
2023/06/24 00:14:02;;;;;;;0.40;0.40;;;16.00;99.90;;;;;;5030952;28;20665;-67
2023/06/24 00:16:28;;;;;;;0.40;0.40;;;15.90;99.90;;;;;;5030741;28;20194;-67
2023/06/24 00:19:00;;;;;;;0.40;0.40;;;15.80;99.90;;;;;;5013148;28;20213;-67
2023/06/24 00:21:29;;;;;;;0.63;0.57;;;15.80;99.90;;;;;;5030745;28;20657;-67
2023/06/24 00:23:59;;;;;;;0.30;0.30;;;15.80;99.90;;;;;;5030790;28;20202;-67
2023/06/24 00:26:25;;;;;;;0.32;0.32;;;15.70;99.90;;;;;;5030094;28;20218;-67
2023/06/24 00:28:51;;;;;;;0.40;0.40;;;15.60;99.90;;;;;;5030942;28;20612;-67
2023/06/24 00:31:17;;;;;;;0.40;0.40;;;15.60;99.90;;;;;;5030827;28;20193;-67
2023/06/24 00:33:43;;;;;;;0.30;0.30;;;15.50;99.90;;;;;;5029652;28;20194;-67
2023/06/24 00:36:11;;;;;;;0.30;0.30;;;15.50;99.90;;;;;;5030549;28;20209;-68
2023/06/24 00:38:38;;;;;;;0.30;0.30;;;15.50;99.90;;;;;;5046922;28;20252;-68
2023/06/24 00:41:04;;;;;;;3.63;0.68;;;15.40;99.90;;;;;;5049530;28;20558;-67
2023/06/24 00:43:30;;;;;;;0.35;0.35;;;15.30;99.90;;;;;;5050535;28;20241;-67
2023/06/24 00:45:56;;;;;;;0.30;0.30;;;15.30;99.90;;;;;;5032871;28;20245;-67
2023/06/24 00:48:24;;;;;;;0.45;0.45;;;15.30;99.90;;;;;;5030490;28;20236;-67
2023/06/24 00:50:50;;;;;;;0.30;0.30;;;15.30;99.90;;;;;;5030515;28;20198;-67
2023/06/24 00:53:16;;;;;;;0.30;0.30;;;15.40;99.90;;;;;;5030453;28;20285;-67
2023/06/24 00:55:45;;;;;;;0.43;0.43;;;15.40;99.90;;;;;;5030282;28;20194;-67
2023/06/24 00:58:16;;;;;;;0.30;0.30;;;15.40;99.90;;;;;;5030681;28;20206;-67
2023/06/24 01:00:46;;;;;;;0.30;0.30;;;15.40;99.90;;;;;;5030699;28;20186;-63
2023/06/24 01:03:16;;;;;;;0.30;0.30;;;15.40;99.90;;;;;;5024670;23;20293;-70
2023/06/24 01:05:44;;;;;;;0.50;0.50;;;15.30;99.90;;;;;;5010844;28;20194;-70
2023/06/24 01:08:15;;;;;;;0.30;0.30;;;15.40;99.90;;;;;;5009422;28;20337;-71
2023/06/24 01:10:41;;;;;;;0.35;0.35;;;15.40;99.90;;;;;;5010645;28;20194;-71
2023/06/24 01:13:07;;;;;;;0.40;0.40;;;15.40;99.90;;;;;;5010837;28;20191;-70
2023/06/24 01:15:33;;;;;;;0.40;0.40;;;15.40;99.90;;;;;;5010521;28;20534;-70
2023/06/24 01:18:21;;;;;;;0.30;0.30;;;15.40;99.90;;;;;;5010883;28;20195;-71
2023/06/24 01:21:05;;;;;;;0.40;0.40;;;15.40;99.90;;;;;;5010572;28;20198;-71
2023/06/24 01:24:01;;;;;;;0.30;0.30;;;15.40;99.90;;;;;;5010244;28;20260;-71
2023/06/24 01:26:35;;;;;;;0.30;0.30;;;15.50;99.90;;;;;;5010651;28;20234;-71
2023/06/24 01:29:44;;;;;;;0.40;0.40;;;15.40;99.90;;;;;;5010411;28;20194;-71
2023/06/24 01:32:36;;;;;;;0.35;0.35;;;15.20;99.90;;;;;;5010805;28;20187;-70
2023/06/24 01:35:11;;;;;;;0.30;0.30;;;15.20;99.90;;;;;;5010664;28;20203;-71
2023/06/24 01:37:52;;;;;;;1.48;0.80;;;15.10;99.90;;;;;;5021048;28;20230;-71
2023/06/24 01:40:30;;;;;;;0.52;0.52;;;15.10;99.90;;;;;;5027784;28;20591;-70
2023/06/24 01:43:03;;;;;;;0.30;0.30;;;14.90;99.90;;;;;;5010231;28;20249;-72
2023/06/24 01:45:35;;;;;;;0.50;0.50;;;15.00;99.90;;;;;;5013174;28;20277;-71
2023/06/24 01:48:27;;;;;;;0.30;0.30;;;15.10;99.90;;;;;;5013823;28;20637;-72
2023/06/24 01:51:07;;;;;;;0.40;0.40;;;15.20;99.90;;;;;;5014019;28;20344;-75
2023/06/24 01:53:39;;;;;;;0.30;0.30;;;15.20;99.90;;;;;;5013623;28;20191;-71
2023/06/24 01:56:07;;;;;;;0.30;0.30;;;15.30;99.90;;;;;;5013942;28;20191;-71
2023/06/24 01:58:35;;;;;;;0.40;0.40;;;15.30;99.90;;;;;;5013685;28;20214;-71
2023/06/24 02:01:03;;;;;;;0.30;0.30;;;15.40;99.90;;;;;;5008823;28;20207;-71
2023/06/24 02:03:32;;;;;;;0.47;0.47;;;15.40;99.90;;;;;;5012813;28;20226;-71
2023/06/24 02:05:59;;;;;;;0.45;0.45;;;15.40;99.90;;;;;;5013933;28;20269;-72
2023/06/24 02:08:25;;;;;;;0.30;0.30;;;15.30;99.90;;;;;;5013409;28;20223;-71
2023/06/24 02:10:52;;;;;;;0.47;0.47;;;15.20;99.90;;;;;;5013543;28;20195;-71
2023/06/24 02:13:19;;;;;;;0.32;0.32;;;15.20;99.90;;;;;;5013630;28;20197;-71
2023/06/24 02:15:47;;;;;;;0.47;0.40;;;15.30;99.90;;;;;;5013534;28;20201;-71
2023/06/24 02:18:15;;;;;;;0.30;0.30;;;15.40;99.90;;;;;;5013101;28;20249;-71
2023/06/24 02:20:43;;;;;;;0.40;0.40;;;15.50;99.90;;;;;;5013199;28;20204;-71
2023/06/24 02:23:10;;;;;;;0.25;0.25;;;15.50;99.90;;;;;;5013275;28;20210;-71
2023/06/24 02:25:39;;;;;;;0.30;0.30;;;15.40;99.90;;;;;;5013216;28;20601;-71
2023/06/24 02:28:06;;;;;;;0.88;0.50;;;15.40;99.90;;;;;;5013208;28;20187;-72
2023/06/24 02:30:34;;;;;;;0.30;0.30;;;15.40;99.90;;;;;;5012878;28;20210;-71
2023/06/24 02:32:59;;;;;;;0.40;0.40;;;15.40;99.90;;;;;;5013038;28;20199;-71
2023/06/24 02:35:25;;;;;;;0.40;0.40;;;15.40;99.90;;;;;;5012899;28;20197;-70
2023/06/24 02:37:51;;;;;;;0.30;0.30;;;15.30;99.90;;;;;;5012735;28;20229;-71
2023/06/24 02:40:17;;;;;;;0.30;0.30;;;15.20;99.90;;;;;;5012916;28;20609;-70
2023/06/24 02:42:43;;;;;;;0.55;0.55;;;15.20;99.90;;;;;;5013073;28;20237;-71
2023/06/24 02:45:09;;;;;;;0.30;0.30;;;15.30;99.90;;;;;;5020962;28;20568;-71
2023/06/24 02:47:36;;;;;;;0.30;0.30;;;15.60;99.90;;;;;;5012558;28;20882;-71
2023/06/24 02:50:04;;;;;;;0.20;0.20;;;15.80;99.90;;;;;;5012683;28;20187;-71
2023/06/24 02:52:30;;;;;;;0.30;0.30;;;16.00;99.90;;;;;;5012807;28;20223;-71
2023/06/24 02:54:59;;;;;;;0.30;0.30;;;16.10;99.90;;;;;;5012548;28;20238;-71
2023/06/24 02:57:26;;;;;;;0.40;0.40;;;16.10;99.90;;;;;;5011951;28;20252;-71
2023/06/24 02:59:52;;;;;;;0.40;0.40;;;16.00;99.90;;;;;;5027642;28;20209;-71
2023/06/24 03:02:18;;;;;;;0.30;0.30;;;16.00;99.90;;;;;;5011017;28;20311;-71
2023/06/24 03:04:44;;;;;;;0.28;0.28;;;16.00;99.90;;;;;;5012678;28;20198;-71
2023/06/24 03:07:11;;;;;;;0.52;0.28;;;16.10;99.90;;;;;;5012507;28;20241;-71
2023/06/24 03:09:37;;;;;;;0.20;0.20;;;16.20;99.90;;;;;;5012318;28;20589;-71
2023/06/24 03:12:03;;;;;;;0.52;0.40;;;16.30;99.90;;;;;;5012531;28;20195;-71
2023/06/24 03:14:29;;;;;;;0.40;0.40;;;16.30;99.90;;;;;;5011977;28;20199;-71
2023/06/24 03:16:54;;;;;;;0.30;0.30;;;16.40;99.90;;;;;;5012310;28;20278;-71
2023/06/24 03:19:20;;;;;;;0.30;0.30;;;16.50;99.90;;;;;;5012139;28;20543;-71
2023/06/24 03:21:46;;;;;;;0.30;0.30;;;16.60;99.90;;;;;;5012127;28;20206;-71
2023/06/24 03:24:11;;;;;;;0.20;0.20;;;16.70;99.90;;;;;;5020542;28;20250;-71
2023/06/24 03:26:40;;;;;;;0.40;0.40;;;16.90;99.90;;;;;;5011972;28;20194;-71
2023/06/24 03:29:07;;;;;;;0.30;0.30;;;17.00;99.90;;;;;;5012027;28;20190;-71
2023/06/24 03:31:33;;;;;;;0.30;0.30;;;17.00;99.90;;;;;;5012014;28;20202;-71
2023/06/24 03:33:58;;;;;;;0.20;0.20;;;17.10;99.90;;;;;;5011921;28;20596;-71
2023/06/24 03:36:24;;;;;;;0.30;0.30;;;17.20;99.90;;;;;;5012591;28;20591;-71
2023/06/24 03:38:51;;;;;;;0.43;0.43;;;17.30;99.90;;;;;;5031514;28;20194;-71
2023/06/24 03:41:16;;;;;;;0.30;0.30;;;17.20;99.90;;;;;;5021155;28;20203;-71
2023/06/24 03:43:43;;;;;;;0.30;0.30;;;17.20;99.90;;;;;;5011662;28;20207;-71
2023/06/24 03:46:09;;;;;;;0.20;0.20;;;17.20;99.90;;;;;;5011667;28;20186;-71
2023/06/24 03:48:35;;;;;;;0.20;0.20;;;17.10;99.90;;;;;;5011485;28;20720;-71
2023/06/24 03:51:01;;;;;;;0.30;0.30;;;17.00;99.90;;;;;;5011839;28;20198;-71
2023/06/24 03:53:27;;;;;;;0.30;0.30;;;17.00;99.90;;;;;;5011411;28;20240;-71
2023/06/24 03:55:52;;;;;;;0.50;0.50;;;16.90;99.90;;;;;;5011658;28;20199;-71
2023/06/24 03:58:20;;;;;;;0.30;0.30;;;16.80;99.90;;;;;;5011512;28;20199;-70
2023/06/24 04:00:49;;;;;;;0.30;0.30;;;16.70;99.90;;;;;;5011365;28;20199;-71
2023/06/24 04:03:17;;;;;;;0.30;0.30;;;16.50;99.90;;;;;;5011237;28;20218;-71
2023/06/24 04:05:43;;;;;;;0.30;0.30;;;16.40;99.90;;;;;;4993783;28;20194;-71
2023/06/24 04:08:09;;;;;;;0.55;0.30;;;16.60;99.90;;;;;;5009811;28;20197;-71
2023/06/24 04:10:34;;;;;;;0.40;0.40;;;16.70;99.90;;;;;;5011060;28;20282;-71
2023/06/24 04:13:00;;;;;;;0.30;0.30;;;16.90;99.90;;;;;;5011455;28;20191;-71
2023/06/24 04:15:26;;;;;;;0.20;0.20;;;17.10;99.90;;;;;;5011119;28;20222;-71
2023/06/24 04:17:51;;;;;;;0.30;0.30;;;17.40;99.90;;;;;;5011361;28;20190;-71
2023/06/24 04:20:17;;;;;;;0.35;0.35;;;17.30;99.90;;;;;;5011214;28;20210;-71
2023/06/24 04:22:43;;;;;;;0.40;0.40;;;17.20;99.90;;;;;;5011665;28;20294;-71
2023/06/24 04:25:09;;;;;;;0.30;0.30;;;17.10;99.90;;;;;;5011074;28;20282;-71
2023/06/24 04:27:35;;;;;;;0.30;0.30;;;17.10;99.90;;;;;;5010975;28;20210;-71
2023/06/24 04:30:02;;;;;;;0.20;0.20;;;17.30;99.90;;;;;;5004641;28;20601;-71
2023/06/24 04:32:28;;;;;;;0.20;0.20;;;17.40;99.90;;;;;;5010930;28;20279;-71
2023/06/24 04:34:53;;;;;;;0.20;0.20;;;17.40;99.90;;;;;;5011179;28;20753;-71
2023/06/24 04:37:19;;;;;;;0.30;0.30;;;17.30;99.90;;;;;;5010383;28;20199;-70
2023/06/24 04:39:46;;;;;;;0.30;0.30;;;17.10;99.90;;;;;;5011001;28;20206;-71
2023/06/24 04:42:12;;;;;;;0.30;0.30;;;17.00;99.90;;;;;;5010859;28;20198;-71
2023/06/24 04:44:38;;;;;;;2.40;0.35;;;16.90;99.90;;;;;;5010863;28;20199;-71
2023/06/24 04:47:03;;;;;;;0.35;0.35;;;17.00;99.90;;;;;;5011040;28;20703;-71
2023/06/24 04:49:29;;;;;;;0.30;0.30;;;17.10;99.90;;;;;;5010897;28;20201;-71
2023/06/24 04:51:55;;;;;;;0.30;0.30;;;17.10;99.90;;;;;;5010932;28;20197;-71
2023/06/24 04:54:21;;;;;;;0.30;0.30;;;17.10;99.90;;;;;;5010611;28;20273;-70
2023/06/24 04:56:48;;;;;;;0.30;0.30;;;17.20;99.90;;;;;;5010830;28;20190;-70
2023/06/24 04:59:14;;;;;;;0.28;0.28;;;17.10;99.90;;;;;;5010889;28;20531;-71
2023/06/24 05:01:39;;;;;;;0.30;0.30;;;17.10;99.90;;;;;;5010380;28;20440;-70
2023/06/24 05:04:05;;;;;;;0.20;0.20;;;17.10;99.90;;;;;;5010420;28;20250;-71
2023/06/24 05:06:31;;;;;;;1.20;0.75;;;17.00;99.90;;;;;;5010609;28;20187;-71
2023/06/24 05:08:57;;;;;;;0.30;0.30;;;17.10;99.90;;;;;;5004231;28;20199;-71
2023/06/24 05:11:22;;;;;;;0.30;0.30;;;17.10;99.90;;;;;;5010527;28;20198;-71
2023/06/24 05:13:48;;;;;;;0.30;0.30;;;17.20;99.90;;;;;;5010962;28;20239;-71
2023/06/24 05:16:14;;;;;;;0.32;0.32;;;17.50;99.90;;;;;;5010639;28;20688;-71
2023/06/24 05:18:39;;;;;;;0.40;0.40;;;17.60;99.90;;;;;;4993099;28;20237;-71
2023/06/24 05:21:05;;;;;;;0.30;0.30;;;17.70;99.90;;;;;;5014516;28;20578;-71
2023/06/24 05:23:31;;;;;;;0.47;0.40;;;17.80;99.90;;;;;;5014324;28;20289;-71
2023/06/24 05:25:56;;;;;;;0.20;0.20;;;17.90;99.90;;;;;;4992181;28;20203;-71
2023/06/24 05:28:22;;;;;;;0.30;0.30;;;18.00;99.90;;;;;;5014187;28;20745;-71
2023/06/24 05:30:48;;;;;;;0.30;0.30;;;18.20;99.90;;;;;;5014261;28;20191;-71
2023/06/24 05:33:14;;;;;;;0.40;0.40;;;18.50;99.90;;;;;;5019167;28;20276;-71
2023/06/24 05:35:41;;;;;;;0.20;0.20;;;18.50;99.90;;;;;;5034105;28;20564;-71
2023/06/24 05:38:07;;;;;;;0.30;0.30;;;18.40;99.90;;;;;;5033723;28;20229;-71
2023/06/24 05:40:33;;;;;;;0.30;0.30;;;18.40;99.90;;;;;;5028688;28;20236;-71
2023/06/24 05:43:00;;;;;;;0.20;0.20;;;18.50;99.90;;;;;;5033892;28;20199;-71
2023/06/24 05:45:26;;;;;;;0.30;0.30;;;18.50;99.90;;;;;;5033550;28;20535;-71
2023/06/24 05:47:52;;;;;;;0.50;0.50;;;18.50;99.90;;;;;;5033737;28;20309;-71
2023/06/24 05:50:18;;;;;;;0.20;0.20;;;18.50;99.90;;;;;;5033665;28;20186;-71
2023/06/24 05:52:43;;;;;;;0.20;0.20;;;18.60;99.90;;;;;;5034022;28;20198;-71
2023/06/24 05:55:09;;;;;;;0.98;0.40;;;18.60;99.90;;;;;;5033869;28;20190;-72
2023/06/24 05:57:35;;;;;;;0.20;0.20;;;18.70;99.90;;;;;;5033436;28;20202;-72
2023/06/24 06:00:03;;;;;;;0.50;0.50;;;18.80;99.90;;;;;;5033646;28;20198;-71
2023/06/24 06:02:29;;;;;;;0.28;0.28;;;19.20;99.90;;;;;;5032879;28;20705;-71
2023/06/24 06:04:54;;;;;;;0.30;0.30;;;19.30;99.90;;;;;;5018303;28;20222;-71
2023/06/24 06:07:20;;;;;;;0.20;0.20;;;19.50;99.90;;;;;;5006858;28;20202;-71
2023/06/24 06:09:46;;;;;;;0.30;0.30;;;19.80;99.90;;;;;;5013670;28;20187;-72
2023/06/24 06:12:12;;;;;;;0.40;0.40;;;20.10;99.90;;;;;;5013581;28;20684;-72
2023/06/24 06:14:37;;;;;;;0.30;0.30;;;20.00;99.90;;;;;;5013328;28;20257;-71
2023/06/24 06:17:03;;;;;;;0.20;0.20;;;20.10;99.90;;;;;;5013568;28;20201;-72
2023/06/24 06:19:29;;;;;;;0.20;0.20;;;20.00;99.90;;;;;;5013242;28;20269;-72
2023/06/24 06:21:55;;;;;;;0.40;0.40;;;19.90;99.90;;;;;;5013148;28;20288;-72
2023/06/24 06:24:20;;;;;;;0.40;0.40;;;19.90;99.90;;;;;;5013001;28;20203;-72
2023/06/24 06:26:46;;;;;;;0.20;0.20;;;19.90;99.90;;;;;;5013358;28;20195;-72
2023/06/24 06:29:12;;;;;;;0.20;0.20;;;20.10;99.90;;;;;;5012859;28;20205;-72
2023/06/24 06:31:39;;;;;;;0.30;0.30;;;20.40;99.90;;;;;;5029777;28;20198;-72
2023/06/24 06:34:05;;;;;;;0.20;0.20;;;20.60;99.90;;;;;;5032950;28;20566;-72
2023/06/24 06:36:31;;;;;;;1.17;0.32;;;20.80;99.90;;;;;;5032641;28;20701;-72
2023/06/24 06:38:56;;;;;;;0.20;0.20;;;20.80;99.90;;;;;;5032901;28;20269;-72
2023/06/24 06:41:24;;;;;;;0.20;0.20;;;21.00;99.90;;;;;;5032620;28;20294;-72
2023/06/24 06:43:53;;;;;;;0.85;0.45;;;21.10;99.90;;;;;;5032408;28;20732;-71
2023/06/24 06:46:20;;;;;;;0.20;0.20;;;20.90;99.90;;;;;;5032560;28;20607;-71
2023/06/24 06:48:45;;;;;;;0.28;0.28;;;21.10;99.90;;;;;;5032793;28;20194;-72
2023/06/24 06:51:12;;;;;;;0.30;0.30;;;21.20;99.90;;;;;;5032707;28;20198;-73
2023/06/24 06:53:38;;;;;;;0.20;0.20;;;21.60;99.90;;;;;;5032368;28;20202;-71
2023/06/24 06:56:04;;;;;;;0.20;0.20;;;21.80;99.90;;;;;;5032467;28;20817;-72
2023/06/24 06:58:29;;;;;;;0.25;0.25;;;21.70;99.90;;;;;;5032290;28;20248;-72
2023/06/24 07:00:55;;;;;;;0.38;0.38;;;21.50;99.90;;;;;;5019524;28;20199;-72
2023/06/24 07:03:21;;;;;;;0.20;0.20;;;21.60;99.90;;;;;;5012020;28;20588;-71
2023/06/24 07:05:47;;;;;;;0.85;0.40;;;21.70;99.90;;;;;;5012552;28;20198;-71
2023/06/24 07:08:13;;;;;;;0.40;0.40;;;21.80;99.90;;;;;;5012496;28;20560;-71
2023/06/24 07:10:39;;;;;;;0.30;0.30;;;21.90;99.90;;;;;;5012437;28;20207;-71
2023/06/24 07:13:04;;;;;;;0.30;0.30;;;21.90;99.90;;;;;;5012366;28;20198;-71
2023/06/24 07:15:30;;;;;;;0.20;0.20;;;22.10;99.90;;;;;;5012206;28;20202;-71
2023/06/24 07:17:56;;;;;;;0.25;0.25;;;22.20;99.90;;;;;;5012282;28;20631;-72
2023/06/24 07:20:22;;;;;;;0.30;0.30;;;22.10;99.90;;;;;;5011989;28;20203;-72
2023/06/24 07:22:48;;;;;;;0.20;0.20;;;22.20;99.90;;;;;;5012124;28;20211;-71
2023/06/24 07:25:14;;;;;;;0.20;0.20;;;22.40;99.90;;;;;;5011959;28;20249;-71
2023/06/24 07:27:39;;;;;;;0.10;0.10;;;22.60;99.90;;;;;;5011955;28;20195;-72
2023/06/24 07:30:06;;;;;;;0.10;0.10;;;22.60;99.90;;;;;;5011912;28;20198;-72
2023/06/24 07:32:32;;;;;;;0.20;0.20;;;22.50;99.90;;;;;;4994248;28;20199;-72
2023/06/24 07:34:57;;;;;;;0.10;0.10;;;22.40;99.90;;;;;;4994481;28;20732;-71
2023/06/24 07:37:24;;;;;;;0.15;0.15;;;22.30;99.90;;;;;;5020463;28;20684;-71
2023/06/24 07:39:50;;;;;;;0.15;0.15;;;22.40;99.90;;;;;;5031825;28;20874;-72
2023/06/24 07:42:18;;;;;;;0.30;0.30;;;22.50;99.90;;;;;;5031054;28;20190;-72
2023/06/24 07:44:48;;;;;;;0.30;0.30;;;22.90;99.90;;;;;;5031729;28;20680;-72
2023/06/24 07:47:14;;;;;;;0.40;0.40;;;23.20;99.90;;;;;;5031799;28;20289;-73
2023/06/24 07:49:40;;;;;;;0.68;0.40;;;23.30;99.90;;;;;;5031370;28;20194;-71
2023/06/24 07:52:06;;;;;;;0.22;0.22;;;23.50;99.90;;;;;;5031289;28;20182;-71
2023/06/24 07:54:32;;;;;;;0.40;0.40;;;23.60;99.90;;;;;;5031256;28;20257;-72
2023/06/24 07:56:57;;;;;;;0.22;0.22;;;23.40;99.90;;;;;;5020056;28;20203;-72
2023/06/24 07:59:24;;;;;;;0.45;0.35;;;23.40;99.90;;;;;;5011310;28;20194;-72
2023/06/24 08:01:50;;;;;;;0.28;0.28;;;23.40;99.90;;;;;;5011504;28;20198;-72
2023/06/24 08:04:16;;;;;;;0.25;0.25;;;23.30;99.90;;;;;;5011433;28;20284;-72
2023/06/24 08:06:42;;;;;;;0.20;0.20;;;23.50;99.90;;;;;;5013932;28;20203;-73
2023/06/24 08:09:07;;;;;;;0.28;0.28;;;23.70;99.90;;;;;;5031559;28;20564;-73
2023/06/24 08:11:33;;;;;;;1.10;0.55;;;24.00;99.90;;;;;;5031364;28;20285;-72
2023/06/24 08:13:59;;;;;;;0.20;0.20;;;24.10;99.90;;;;;;5029862;28;20199;-72
2023/06/24 08:16:25;;;;;;;0.10;0.10;;;23.90;99.90;;;;;;5031007;28;20208;-72
2023/06/24 08:18:51;;;;;;;0.30;0.30;;;24.00;99.90;;;;;;5031382;28;20194;-73
2023/06/24 08:21:17;;;;;;;0.20;0.20;;;24.40;99.90;;;;;;5031012;28;20204;-72
2023/06/24 08:23:42;;;;;;;0.65;0.35;;;24.10;99.90;;;;;;5011386;28;20203;-72
2023/06/24 08:26:08;;;;;;;0.20;0.20;;;24.20;99.90;;;;;;5011594;28;20681;-72
2023/06/24 08:28:34;;;;;;;0.30;0.30;;;24.10;99.60;;;;;;5011490;28;20586;-72
2023/06/24 08:31:00;;;;;;;0.20;0.20;;;24.10;99.90;;;;;;4994275;28;20198;-72
2023/06/24 08:33:26;;;;;;;0.10;0.10;;;24.00;99.90;;;;;;5011314;28;20195;-73
2023/06/24 08:35:51;;;;;;;0.50;0.50;;;24.20;99.90;;;;;;5011357;28;20670;-72
2023/06/24 08:38:17;;;;;;;0.40;0.40;;;24.40;99.90;;;;;;5044096;28;20243;-72
2023/06/24 08:40:45;;;;;;;0.20;0.20;;;24.90;99.90;;;;;;5050851;28;20288;-73
2023/06/24 08:43:11;;;;;;;0.20;0.20;;;24.90;98.30;;;;;;5051066;28;20216;-73
2023/06/24 08:45:37;;;;;;;0.57;0.45;;;24.90;99.90;;;;;;5050595;28;20202;-72
2023/06/24 08:48:03;;;;;;;0.10;0.10;;;24.70;98.40;;;;;;5051114;28;20197;-73
2023/06/24 08:50:35;;;;;;;0.10;0.10;;;25.10;99.70;;;;;;5050712;28;20189;-72
2023/06/24 08:53:06;;;;;;;0.25;0.25;;;25.20;99.10;;;;;;5040828;28;20221;-72
2023/06/24 08:55:36;;;;;;;0.10;0.10;;;25.50;98.50;;;;;;5034299;28;20675;-73
2023/06/24 08:58:03;;;;;;;0.10;0.10;;;25.60;99.50;;;;;;5017523;28;20231;-72
2023/06/24 09:00:29;;;;;;;0.30;0.30;;;25.70;98.90;;;;;;5034789;28;20730;-72
2023/06/24 09:02:55;;;;;;;0.30;0.30;;;25.90;96.80;;;;;;5034375;28;20748;-72
2023/06/24 09:05:21;;;;;;;0.10;0.10;;;25.90;96.70;;;;;;5034585;28;20665;-72
2023/06/24 09:07:48;;;;;;;0.30;0.30;;;25.60;96.60;;;;;;5034783;28;20201;-73
2023/06/24 09:10:31;;;;;;;0.43;0.43;;;25.40;99.90;;;;;;5034553;28;20251;-73
2023/06/24 09:12:57;;;;;;;0.57;0.50;;;25.60;96.70;;;;;;5034842;28;20201;-72
2023/06/24 09:15:22;;;;;;;0.43;0.40;;;25.40;97.40;;;;;;5034500;28;20202;-72
2023/06/24 09:17:48;;;;;;;0.40;0.40;;;25.70;96.90;;;;;;5034317;28;20196;-73
2023/06/24 09:20:14;;;;;;;0.38;0.38;;;25.60;98.90;;;;;;5034472;28;20336;-73
2023/06/24 09:22:42;;;;;;;0.20;0.20;;;25.70;97.80;;;;;;5034353;28;20210;-73
2023/06/24 09:25:08;;;;;;;0.95;0.30;;;25.90;97.60;;;;;;5034363;28;20653;-73
2023/06/24 09:27:34;;;;;;;0.32;0.32;;;26.20;96.30;;;;;;5034338;28;20193;-73
2023/06/24 09:30:00;;;;;;;0.25;0.25;;;26.40;98.20;;;;;;5034555;28;20186;-73
2023/06/24 09:32:32;;;;;;;0.77;0.52;;;26.70;98.30;;;;;;5034127;28;20281;-73
2023/06/24 09:34:57;;;;;;;0.17;0.17;;;26.80;97.40;;;;;;5034162;28;20190;-73
2023/06/24 09:37:26;;;;;;;0.43;0.20;;;26.60;96.40;;;;;;5042863;28;20244;-72
2023/06/24 09:39:53;;;;;;;0.30;0.30;;;26.90;98.20;;;;;;5052918;28;20208;-73
2023/06/24 09:42:22;;;;;;;0.20;0.20;;;27.10;96.10;;;;;;5053837;28;20192;-73
2023/06/24 09:44:56;;;;;;;0.28;0.25;;;27.60;95.60;;;;;;5053793;28;20197;-73
2023/06/24 09:47:24;;;;;;;0.30;0.30;;;28.00;95.60;;;;;;5053939;28;20854;-73
2023/06/24 09:49:51;;;;;;;0.28;0.28;;;28.30;95.30;;;;;;5039155;28;20285;-73
2023/06/24 09:52:20;;;;;;;4.20;0.28;;;28.20;94.10;;;;;;5034033;28;20186;-73
2023/06/24 09:54:50;;;;;;;0.20;0.20;;;27.60;94.80;;;;;;5034021;28;20222;-73
2023/06/24 09:57:20;;;;;;;0.20;0.20;;;27.30;94.50;;;;;;5033696;28;20194;-73
2023/06/24 09:59:46;;;;;;;0.20;0.20;;;27.40;96.10;;;;;;5033640;28;20194;-73
2023/06/24 10:02:15;;;;;;;0.20;0.20;;;27.70;96.30;;;;;;5033290;28;20275;-73
2023/06/24 10:04:41;;;;;;;2.10;0.77;;;27.80;93.90;;;;;;5032762;28;20296;-73
2023/06/24 10:07:07;;;;;;;0.20;0.20;;;27.90;94.30;;;;;;5033534;28;20631;-73
2023/06/24 10:09:33;;;;;;;0.32;0.32;;;27.70;93.80;;;;;;5033447;28;20556;-73
2023/06/24 10:12:00;;;;;;;0.45;0.32;;;27.80;93.50;;;;;;5015864;28;20197;-73
2023/06/24 10:14:25;;;;;;;0.15;0.15;;;27.30;93.40;;;;;;5032071;28;20219;-73
2023/06/24 10:16:51;;;;;;;0.32;0.30;;;27.20;94.50;;;;;;5033707;28;20280;-73
2023/06/24 10:19:23;;;;;;;0.13;0.13;;;27.20;93.80;;;;;;5033421;28;20244;-73
2023/06/24 10:21:54;;;;;;;0.20;0.20;;;27.30;94.50;;;;;;5033714;28;20189;-73
2023/06/24 10:24:34;;;;;;;0.30;0.30;;;27.40;93.60;;;;;;5033060;28;20206;-72
2023/06/24 10:27:04;;;;;;;0.52;0.22;;;27.80;92.60;;;;;;5033501;28;20656;-73
2023/06/24 10:29:37;;;;;;;0.13;0.13;;;28.10;91.70;;;;;;5033340;28;20197;-73
2023/06/24 10:32:07;;;;;;;0.15;0.15;;;28.00;92.90;;;;;;5033426;28;20197;-73
2023/06/24 10:34:59;;;;;;;0.63;0.30;;;27.80;92.50;;;;;;5033237;28;20208;-73
2023/06/24 10:37:26;;;;;;;1.10;0.65;;;27.90;94.70;;;;;;5017673;28;20282;-73
2023/06/24 10:39:54;;;;;;;0.20;0.20;;;28.00;92.20;;;;;;5053152;28;20659;-73
2023/06/24 10:42:37;;;;;;;1.30;0.63;;;27.80;91.90;;;;;;5052969;28;20235;-73
2023/06/24 10:45:09;;;;;;;0.70;0.38;;;27.60;93.40;;;;;;5047155;28;20746;-73
2023/06/24 10:47:35;;;;;;;0.35;0.35;;;27.60;93.30;;;;;;5032931;28;20194;-73
2023/06/24 10:50:01;;;;;;;0.25;0.25;;;28.00;92.50;;;;;;5032995;28;20182;-73
2023/06/24 10:52:27;;;;;;;0.17;0.17;;;28.30;95.20;;;;;;5032842;28;20201;-73
2023/06/24 10:54:54;;;;;;;1.45;0.73;;;28.80;93.50;;;;;;5032892;28;20194;-73
2023/06/24 10:57:24;;;;;;;0.50;0.50;;;28.90;91.30;;;;;;5032392;28;20189;-73
2023/06/24 10:59:51;;;;;;;0.20;0.20;;;29.00;92.00;;;;;;5032653;28;20197;-73
2023/06/24 11:02:22;;;;;;;0.10;0.10;;;29.30;92.80;;;;;;5032200;28;20224;-73
2023/06/24 11:04:56;;;;;;;0.20;0.20;;;29.70;91.90;;;;;;5032328;28;20206;-73
2023/06/24 11:07:24;;;;;;;0.47;0.32;;;29.90;92.00;;;;;;5032256;28;20190;-73
2023/06/24 11:09:50;;;;;;;0.30;0.30;;;29.90;92.00;;;;;;5032590;28;20259;-73
2023/06/24 11:12:16;;;;;;;0.10;0.10;;;30.20;93.00;;;;;;5032118;28;20196;-73
2023/06/24 11:14:43;;;;;;;0.55;0.40;;;30.10;90.30;;;;;;5032204;28;20198;-73
2023/06/24 11:17:09;;;;;;;0.63;0.57;;;30.20;92.10;;;;;;5031519;28;20190;-73
2023/06/24 11:19:38;;;;;;;0.52;0.32;;;30.40;91.20;;;;;;5032318;28;20251;-73
2023/06/24 11:22:05;;;;;;;0.20;0.20;;;30.60;92.00;;;;;;5023314;28;20204;-73
2023/06/24 11:24:31;;;;;;;0.43;0.43;;;30.20;91.30;;;;;;5031919;28;20285;-73
2023/06/24 11:26:57;;;;;;;0.52;0.52;;;30.10;91.10;;;;;;5032570;28;20276;-73
2023/06/24 11:29:23;;;;;;;0.30;0.30;;;30.10;90.10;;;;;;5031956;28;20269;-73
2023/06/24 11:31:50;;;;;;;0.43;0.30;;;30.50;89.90;;;;;;5032414;28;20197;-72
2023/06/24 11:34:16;;;;;;;0.80;0.43;;;30.50;89.60;;;;;;5032137;28;20649;-73
2023/06/24 11:36:42;;;;;;;0.35;0.35;;;30.60;92.10;;;;;;5035306;28;20197;-73
2023/06/24 11:39:08;;;;;;;0.22;0.22;;;31.00;90.60;;;;;;5051795;28;20208;-73
2023/06/24 11:41:34;;;;;;;0.17;0.17;;;31.00;89.70;;;;;;5042972;28;20303;-73
2023/06/24 11:44:00;;;;;;;0.90;0.50;;;31.20;89.30;;;;;;5031913;28;20201;-73
2023/06/24 11:46:35;;;;;;;0.22;0.22;;;31.50;85.10;;;;;;5031698;28;20193;-72
2023/06/24 11:49:07;;;;;;;0.77;0.40;;;31.30;89.60;;;;;;5032017;28;20185;-73
2023/06/24 11:51:34;;;;;;;0.77;0.63;;;30.80;90.50;;;;;;5031583;28;20768;-73
2023/06/24 11:54:05;;;;;;;0.43;0.43;;;30.80;90.80;;;;;;5031639;28;20206;-73
2023/06/24 11:56:37;;;;;;;1.38;0.40;;;31.00;89.70;;;;;;5031537;28;20204;-73
2023/06/24 11:59:17;;;;;;;1.30;0.68;;;31.00;88.20;;;;;;5031172;28;20197;-73
2023/06/24 12:01:43;;;;;;;0.20;0.20;;;30.50;90.40;;;;;;5029896;28;20204;-73
2023/06/24 12:04:15;;;;;;;0.45;0.45;;;30.50;89.70;;;;;;5031121;28;20742;-73
2023/06/24 12:06:43;;;;;;;2.42;0.77;;;30.90;87.30;;;;;;5029837;28;20213;-73
2023/06/24 12:09:10;;;;;;;1.65;0.88;;;31.10;88.30;;;;;;5031567;28;20276;-74
2023/06/24 12:11:36;;;;;;;0.15;0.15;;;31.00;88.10;;;;;;5031482;28;20186;-73
2023/06/24 12:14:02;;;;;;;0.20;0.20;;;30.60;89.80;;;;;;5031516;28;20197;-73
2023/06/24 12:16:28;;;;;;;0.15;0.15;;;30.70;90.30;;;;;;5030080;28;20288;-73
2023/06/24 12:18:54;;;;;;;0.20;0.20;;;30.40;89.70;;;;;;5031320;28;20240;-73
2023/06/24 12:21:20;;;;;;;1.30;0.17;;;30.60;90.00;;;;;;5012949;28;20198;-74
2023/06/24 12:23:46;;;;;;;0.85;0.60;;;30.20;88.60;;;;;;5031421;28;20231;-73
2023/06/24 12:26:12;;;;;;;0.35;0.35;;;29.50;87.80;;;;;;5030950;28;20656;-73
2023/06/24 12:28:38;;;;;;;0.77;0.65;;;29.50;91.20;;;;;;5030656;28;20220;-74
2023/06/24 12:31:04;;;;;;;0.20;0.20;;;30.00;91.00;;;;;;5013202;28;20856;-74
2023/06/24 12:33:33;;;;;;;0.28;0.28;;;30.30;90.50;;;;;;5030998;28;20190;-73
2023/06/24 12:35:59;;;;;;;4.88;0.60;;;30.10;88.70;;;;;;5031100;28;20198;-73
2023/06/24 12:38:25;;;;;;;0.30;0.30;;;29.40;89.80;;;;;;5016816;28;20228;-73
2023/06/24 12:40:50;;;;;;;0.90;0.65;;;29.10;90.40;;;;;;5031071;28;20205;-73
2023/06/24 12:43:16;;;;;;;0.20;0.20;;;28.60;90.10;;;;;;5030694;28;20205;-73
2023/06/24 12:45:45;;;;;;;0.40;0.40;;;28.30;90.80;;;;;;5030509;28;20627;-73
2023/06/24 12:48:11;;;;;;;0.30;0.30;;;28.70;90.60;;;;;;5031042;28;20223;-73
2023/06/24 12:50:37;;;;;;;0.10;0.10;;;28.80;91.10;;;;;;5030625;28;20201;-73